Time;durP1;ratioP1;P1;durP2;ratioP2;P2;SDS_P1;SDS_P2;PMS_P1;PMS_P2;Temp;Humidity;BMP_temperature;BMP_pressure;BME280_temperature;BME280_humidity;BME280_pressure;Samples;Min_cycle;Max_cycle;Signal;HPM_P1;HPM_P2
2023/09/01 00:00:56;;;;;;;;;;;21.10;51.10;;;;;;1542019;75;1165;-53
2023/09/01 00:02:58;;;;;;;;;;;21.00;51.10;;;;;;1557869;75;1973;-53
2023/09/01 00:05:00;;;;;;;;;;;21.10;51.30;;;;;;1520446;77;1902;-55
2023/09/01 00:07:02;;;;;;;;;;;21.00;51.30;;;;;;1534031;76;808;-52
2023/09/01 00:09:04;;;;;;;;;;;21.10;51.50;;;;;;1550238;76;655;-53
2023/09/01 00:11:06;;;;;;;;;;;21.00;51.50;;;;;;1528145;77;1096;-55
2023/09/01 00:13:08;;;;;;;;;;;21.10;51.60;;;;;;1556782;75;1356;-56
2023/09/01 00:15:10;;;;;;;;;;;21.00;51.70;;;;;;1560446;75;705;-56
2023/09/01 00:17:12;;;;;;;;;;;21.10;51.80;;;;;;1560478;75;713;-55
2023/09/01 00:19:14;;;;;;;;;;;21.00;51.70;;;;;;1556165;75;1141;-55
2023/09/01 00:21:17;;;;;;;;;;;21.10;51.90;;;;;;1534883;76;795;-55
2023/09/01 00:23:18;;;;;;;;;;;21.10;51.90;;;;;;1568867;75;866;-56
2023/09/01 00:25:20;;;;;;;;;;;21.10;52.00;;;;;;1568178;75;1942;-55
2023/09/01 00:27:22;;;;;;;;;;;21.00;52.10;;;;;;1543907;75;1308;-54
2023/09/01 00:29:24;;;;;;;;;;;21.00;52.00;;;;;;1526729;76;1135;-55
2023/09/01 00:31:26;;;;;;;;;;;21.00;52.00;;;;;;1558539;75;746;-56
2023/09/01 00:33:28;;;;;;;;;;;21.00;52.10;;;;;;1532311;77;741;-55
2023/09/01 00:35:30;;;;;;;;;;;21.00;52.00;;;;;;1540267;76;785;-53
2023/09/01 00:37:32;;;;;;;;;;;21.10;52.10;;;;;;1531164;76;921;-53
2023/09/01 00:39:34;;;;;;;;;;;21.10;52.20;;;;;;1539941;76;1178;-53
2023/09/01 00:41:36;;;;;;;;;;;21.10;52.20;;;;;;1523168;77;1565;-56
2023/09/01 00:43:38;;;;;;;;;;;21.10;52.20;;;;;;1526194;77;1921;-54
2023/09/01 00:45:40;;;;;;;;;;;21.10;52.10;;;;;;1545363;76;757;-54
2023/09/01 00:47:42;;;;;;;;;;;21.10;52.10;;;;;;1536497;76;742;-54
2023/09/01 00:49:44;;;;;;;;;;;21.10;52.10;;;;;;1538446;76;1169;-53
2023/09/01 00:51:48;;;;;;;;;;;21.10;52.10;;;;;;1538447;76;877;-55
2023/09/01 00:53:51;;;;;;;;;;;21.10;52.10;;;;;;1546586;75;1109;-55
2023/09/01 00:55:55;;;;;;;;;;;21.00;52.10;;;;;;1546856;75;1604;-55
2023/09/01 00:57:56;;;;;;;;;;;21.10;52.20;;;;;;1546519;75;975;-54
2023/09/01 00:59:58;;;;;;;;;;;21.10;52.20;;;;;;1547940;75;1103;-56
2023/09/01 01:02:00;;;;;;;;;;;21.20;52.30;;;;;;1550583;75;693;-53
2023/09/01 01:04:07;;;;;;;;;;;21.10;52.30;;;;;;1543348;75;1927;-54
2023/09/01 01:06:09;;;;;;;;;;;21.20;52.30;;;;;;1537898;75;1617;-55
2023/09/01 01:08:15;;;;;;;;;;;21.10;52.30;;;;;;1540385;75;1780;-55
2023/09/01 01:10:19;;;;;;;;;;;21.10;52.30;;;;;;1549613;76;1964;-56
2023/09/01 01:12:22;;;;;;;;;;;21.20;52.20;;;;;;1543378;75;723;-54
2023/09/01 01:14:28;;;;;;;;;;;21.10;52.20;;;;;;1542436;75;1828;-53
2023/09/01 01:16:31;;;;;;;;;;;21.10;52.30;;;;;;1539165;75;664;-56
2023/09/01 01:18:33;;;;;;;;;;;21.20;52.30;;;;;;1534980;76;762;-53
2023/09/01 01:20:36;;;;;;;;;;;21.10;52.40;;;;;;1548679;76;1155;-52
2023/09/01 01:22:41;;;;;;;;;;;21.10;52.40;;;;;;1549911;76;1356;-54
2023/09/01 01:24:43;;;;;;;;;;;21.10;52.40;;;;;;1542866;75;1910;-53
2023/09/01 01:26:45;;;;;;;;;;;21.10;52.60;;;;;;1540027;75;674;-53
2023/09/01 01:28:47;;;;;;;;;;;21.10;52.70;;;;;;1546141;76;778;-55
2023/09/01 01:30:49;;;;;;;;;;;21.10;52.80;;;;;;1534804;76;1092;-55
2023/09/01 01:32:51;;;;;;;;;;;21.10;52.80;;;;;;1551998;75;691;-55
2023/09/01 01:34:57;;;;;;;;;;;21.10;52.80;;;;;;1546042;75;697;-53
2023/09/01 01:37:03;;;;;;;;;;;21.00;52.80;;;;;;1535425;76;1648;-55
2023/09/01 01:39:10;;;;;;;;;;;21.10;52.90;;;;;;1533232;75;1812;-55
2023/09/01 01:41:13;;;;;;;;;;;21.10;52.90;;;;;;1547927;75;1189;-56
2023/09/01 01:43:17;;;;;;;;;;;21.10;52.90;;;;;;1550023;76;703;-53
2023/09/01 01:45:20;;;;;;;;;;;21.00;52.90;;;;;;1553582;75;1950;-56
2023/09/01 01:47:22;;;;;;;;;;;21.00;53.00;;;;;;1545034;76;685;-55
2023/09/01 01:49:24;;;;;;;;;;;21.10;53.10;;;;;;1552123;75;1133;-56
2023/09/01 01:51:26;;;;;;;;;;;21.00;53.10;;;;;;1523086;77;1542;-55
2023/09/01 01:53:28;;;;;;;;;;;21.00;53.10;;;;;;1537625;76;713;-52
2023/09/01 01:55:30;;;;;;;;;;;21.10;53.30;;;;;;1538011;76;674;-52
2023/09/01 01:57:31;;;;;;;;;;;21.00;53.20;;;;;;1541790;76;663;-53
2023/09/01 01:59:33;;;;;;;;;;;21.00;53.30;;;;;;1534513;75;1143;-55
2023/09/01 02:01:35;;;;;;;;;;;21.10;53.40;;;;;;1542007;75;728;-55
2023/09/01 02:03:37;;;;;;;;;;;21.00;53.40;;;;;;1546273;76;703;-55
2023/09/01 02:05:39;;;;;;;;;;;21.00;53.50;;;;;;1546250;75;1922;-53
2023/09/01 02:07:41;;;;;;;;;;;21.00;53.50;;;;;;1551549;75;816;-56
2023/09/01 02:09:43;;;;;;;;;;;21.00;53.60;;;;;;1548052;75;1146;-53
2023/09/01 02:11:45;;;;;;;;;;;21.00;53.60;;;;;;1548256;75;747;-53
2023/09/01 02:13:47;;;;;;;;;;;21.00;53.70;;;;;;1546146;76;751;-55
2023/09/01 02:15:53;;;;;;;;;;;21.00;53.60;;;;;;1542465;75;686;-55
2023/09/01 02:17:55;;;;;;;;;;;21.00;53.70;;;;;;1549021;75;1397;-53
2023/09/01 02:19:57;;;;;;;;;;;21.00;53.70;;;;;;1552199;75;1527;-55
2023/09/01 02:21:59;;;;;;;;;;;21.00;53.70;;;;;;1552302;75;759;-51
2023/09/01 02:24:01;;;;;;;;;;;21.00;53.70;;;;;;1546887;75;700;-55
2023/09/01 02:26:04;;;;;;;;;;;21.00;53.70;;;;;;1546474;75;1927;-53
2023/09/01 02:28:06;;;;;;;;;;;21.00;53.60;;;;;;1556726;75;706;-54
2023/09/01 02:30:09;;;;;;;;;;;21.00;53.60;;;;;;1539272;76;1165;-55
2023/09/01 02:32:11;;;;;;;;;;;21.00;53.60;;;;;;1537823;75;775;-52
2023/09/01 02:34:12;;;;;;;;;;;21.00;53.60;;;;;;1528132;76;1330;-53
2023/09/01 02:36:33;;;;;;;;;;;21.00;53.60;;;;;;1559798;75;762;-55
2023/09/01 02:38:35;;;;;;;;;;;21.00;53.60;;;;;;1524360;77;645;-55
2023/09/01 02:40:36;;;;;;;;;;;21.00;53.50;;;;;;1543516;76;1172;-55
2023/09/01 02:42:39;;;;;;;;;;;21.00;53.50;;;;;;1541393;76;903;-55
2023/09/01 02:44:41;;;;;;;;;;;21.00;53.40;;;;;;1532013;75;1915;-55
2023/09/01 02:46:43;;;;;;;;;;;21.00;53.30;;;;;;1544961;76;668;-55
2023/09/01 02:48:45;;;;;;;;;;;21.00;53.20;;;;;;1535191;75;1536;-55
2023/09/01 02:50:47;;;;;;;;;;;21.10;53.30;;;;;;1563623;75;1077;-54
2023/09/01 02:52:49;;;;;;;;;;;21.00;53.20;;;;;;1540411;76;702;-52
2023/09/01 02:54:50;;;;;;;;;;;21.10;53.20;;;;;;1543775;75;784;-54
2023/09/01 02:56:52;;;;;;;;;;;21.00;53.10;;;;;;1544094;75;672;-54
2023/09/01 02:58:54;;;;;;;;;;;21.00;53.10;;;;;;1541772;75;699;-53
2023/09/01 03:00:56;;;;;;;;;;;21.00;53.10;;;;;;1547942;75;1096;-55
2023/09/01 03:02:58;;;;;;;;;;;21.00;53.10;;;;;;1542818;75;1420;-56
2023/09/01 03:05:00;;;;;;;;;;;21.10;53.20;;;;;;1559343;75;1987;-56
2023/09/01 03:07:02;;;;;;;;;;;21.00;53.10;;;;;;1530850;76;729;-55
2023/09/01 03:09:04;;;;;;;;;;;21.00;53.00;;;;;;1523611;77;775;-56
2023/09/01 03:11:06;;;;;;;;;;;21.10;53.10;;;;;;1527515;77;1109;-55
2023/09/01 03:13:08;;;;;;;;;;;21.10;53.10;;;;;;1521209;77;712;-55
2023/09/01 03:15:10;;;;;;;;;;;21.10;53.10;;;;;;1551040;76;1525;-53
2023/09/01 03:17:12;;;;;;;;;;;21.10;53.10;;;;;;1541092;76;699;-54
2023/09/01 03:19:14;;;;;;;;;;;21.00;53.00;;;;;;1549434;75;1086;-53
2023/09/01 03:21:15;;;;;;;;;;;21.00;53.00;;;;;;1548154;75;680;-54
2023/09/01 03:23:17;;;;;;;;;;;21.00;53.00;;;;;;1555229;75;692;-56
2023/09/01 03:25:19;;;;;;;;;;;21.00;52.90;;;;;;1546509;75;1936;-56
2023/09/01 03:27:21;;;;;;;;;;;21.10;53.10;;;;;;1560608;75;761;-56
2023/09/01 03:29:23;;;;;;;;;;;21.10;53.10;;;;;;1547654;75;1542;-55
2023/09/01 03:31:25;;;;;;;;;;;21.00;52.90;;;;;;1552210;75;623;-54
2023/09/01 03:33:27;;;;;;;;;;;21.00;52.90;;;;;;1540535;76;657;-54
2023/09/01 03:35:29;;;;;;;;;;;21.10;53.00;;;;;;1556631;76;749;-53
2023/09/01 03:37:31;;;;;;;;;;;21.10;53.00;;;;;;1551535;75;723;-56
2023/09/01 03:39:33;;;;;;;;;;;21.00;52.80;;;;;;1543918;75;1150;-55
2023/09/01 03:41:37;;;;;;;;;;;21.10;52.90;;;;;;1541398;75;693;-56
2023/09/01 03:43:39;;;;;;;;;;;21.00;52.80;;;;;;1546755;75;1552;-55
2023/09/01 03:45:44;;;;;;;;;;;21.00;52.90;;;;;;1545236;75;1932;-53
2023/09/01 03:47:46;;;;;;;;;;;21.00;52.90;;;;;;1535630;75;731;-53
2023/09/01 03:49:47;;;;;;;;;;;21.00;52.90;;;;;;1554764;75;1143;-54
2023/09/01 03:51:49;;;;;;;;;;;21.00;52.90;;;;;;1541795;76;710;-56
2023/09/01 03:53:51;;;;;;;;;;;21.00;52.90;;;;;;1543009;75;709;-56
2023/09/01 03:55:53;;;;;;;;;;;21.00;52.90;;;;;;1548064;75;743;-56
2023/09/01 03:57:55;;;;;;;;;;;21.00;52.90;;;;;;1549319;75;1391;-56
2023/09/01 03:59:57;;;;;;;;;;;21.00;52.90;;;;;;1545959;75;1146;-52
2023/09/01 04:01:59;;;;;;;;;;;20.80;52.80;;;;;;1556833;75;691;-53
2023/09/01 04:04:01;;;;;;;;;;;21.10;52.90;;;;;;1543083;75;683;-55
2023/09/01 04:06:05;;;;;;;;;;;21.00;52.80;;;;;;1553251;75;1911;-53
2023/09/01 04:08:06;;;;;;;;;;;21.00;52.80;;;;;;1563512;75;769;-54
2023/09/01 04:10:09;;;;;;;;;;;21.00;52.80;;;;;;1559106;75;1152;-53
2023/09/01 04:12:11;;;;;;;;;;;21.00;52.80;;;;;;1537559;76;1545;-55
2023/09/01 04:14:12;;;;;;;;;;;21.10;52.80;;;;;;1536693;76;677;-53
2023/09/01 04:16:14;;;;;;;;;;;21.00;52.80;;;;;;1540947;76;656;-53
2023/09/01 04:18:16;;;;;;;;;;;21.10;52.80;;;;;;1540500;76;757;-53
2023/09/01 04:20:19;;;;;;;;;;;21.00;52.80;;;;;;1537883;76;1136;-52
2023/09/01 04:22:21;;;;;;;;;;;21.10;52.80;;;;;;1539634;76;748;-54
2023/09/01 04:24:23;;;;;;;;;;;21.00;52.70;;;;;;1542144;76;692;-52
2023/09/01 04:26:25;;;;;;;;;;;21.10;52.80;;;;;;1547586;76;1945;-53
2023/09/01 04:28:27;;;;;;;;;;;21.00;52.70;;;;;;1536578;76;778;-53
2023/09/01 04:30:30;;;;;;;;;;;21.00;52.70;;;;;;1556550;75;1147;-54
2023/09/01 04:32:32;;;;;;;;;;;21.00;52.70;;;;;;1542325;76;692;-55
2023/09/01 04:34:34;;;;;;;;;;;21.10;52.80;;;;;;1534879;76;644;-54
2023/09/01 04:36:36;;;;;;;;;;;21.00;52.70;;;;;;1537785;76;774;-53
2023/09/01 04:38:37;;;;;;;;;;;21.00;52.70;;;;;;1549293;75;790;-56
2023/09/01 04:40:39;;;;;;;;;;;21.00;52.70;;;;;;1558738;75;1570;-54
2023/09/01 04:42:41;;;;;;;;;;;21.10;52.80;;;;;;1553781;75;766;-55
2023/09/01 04:44:43;;;;;;;;;;;21.10;52.80;;;;;;1575816;75;717;-54
2023/09/01 04:46:45;;;;;;;;;;;21.10;52.80;;;;;;1568812;75;1927;-52
2023/09/01 04:48:47;;;;;;;;;;;21.10;52.80;;;;;;1558169;75;695;-54
2023/09/01 04:50:49;;;;;;;;;;;21.00;52.80;;;;;;1561506;75;1157;-53
2023/09/01 04:52:51;;;;;;;;;;;21.10;52.80;;;;;;1559030;75;691;-56
2023/09/01 04:54:52;;;;;;;;;;;21.10;52.80;;;;;;1534755;75;1551;-56
2023/09/01 04:56:55;;;;;;;;;;;21.00;52.80;;;;;;1540402;75;690;-56
2023/09/01 04:58:57;;;;;;;;;;;21.00;52.80;;;;;;1555317;75;742;-53
2023/09/01 05:00:59;;;;;;;;;;;21.10;52.90;;;;;;1546859;75;1119;-53
2023/09/01 05:03:03;;;;;;;;;;;21.10;52.90;;;;;;1554479;75;728;-54
2023/09/01 05:05:05;;;;;;;;;;;21.00;52.80;;;;;;1571159;75;1579;-52
2023/09/01 05:07:07;;;;;;;;;;;21.10;52.90;;;;;;1532473;76;1901;-56
2023/09/01 05:09:09;;;;;;;;;;;21.10;52.80;;;;;;1533662;76;1729;-55
2023/09/01 05:11:11;;;;;;;;;;;21.00;52.80;;;;;;1543746;76;1103;-55
2023/09/01 05:13:12;;;;;;;;;;;21.10;52.90;;;;;;1535916;76;733;-53
2023/09/01 05:15:15;;;;;;;;;;;21.10;52.90;;;;;;1545783;76;672;-54
2023/09/01 05:17:16;;;;;;;;;;;21.10;52.90;;;;;;1544746;76;743;-54
2023/09/01 05:19:18;;;;;;;;;;;21.10;53.00;;;;;;1545275;75;1156;-56
2023/09/01 05:21:20;;;;;;;;;;;21.10;53.00;;;;;;1549499;75;718;-54
2023/09/01 05:23:25;;;;;;;;;;;21.10;53.00;;;;;;1539330;75;1349;-54
2023/09/01 05:25:26;;;;;;;;;;;21.10;53.00;;;;;;1538927;75;1919;-56
2023/09/01 05:27:28;;;;;;;;;;;21.10;53.00;;;;;;1548908;75;711;-54
2023/09/01 05:29:30;;;;;;;;;;;21.10;53.00;;;;;;1544591;75;1150;-54
2023/09/01 05:31:32;;;;;;;;;;;21.10;53.10;;;;;;1551883;75;710;-56
2023/09/01 05:33:34;;;;;;;;;;;21.10;53.10;;;;;;1542999;75;752;-53
2023/09/01 05:35:36;;;;;;;;;;;21.10;53.10;;;;;;1554354;75;683;-53
2023/09/01 05:37:38;;;;;;;;;;;21.10;53.10;;;;;;1547437;75;1453;-56
2023/09/01 05:39:42;;;;;;;;;;;21.10;53.20;;;;;;1549202;75;1125;-56
2023/09/01 05:41:45;;;;;;;;;;;21.10;53.20;;;;;;1553802;75;741;-53
2023/09/01 05:43:46;;;;;;;;;;;21.10;53.20;;;;;;1559064;75;660;-55
2023/09/01 05:45:48;;;;;;;;;;;21.10;53.30;;;;;;1548685;75;1933;-54
2023/09/01 05:47:50;;;;;;;;;;;21.10;53.20;;;;;;1546602;75;685;-55
2023/09/01 05:49:52;;;;;;;;;;;21.10;53.20;;;;;;1549966;75;1354;-55
2023/09/01 05:51:54;;;;;;;;;;;21.10;53.20;;;;;;1536710;75;687;-54
2023/09/01 05:53:56;;;;;;;;;;;21.10;53.10;;;;;;1548469;75;729;-54
2023/09/01 05:55:58;;;;;;;;;;;21.00;53.00;;;;;;1546523;75;667;-54
2023/09/01 05:58:00;;;;;;;;;;;21.00;53.00;;;;;;1541161;76;693;-52
2023/09/01 06:00:03;;;;;;;;;;;21.10;53.00;;;;;;1543114;75;1145;-56
2023/09/01 06:02:05;;;;;;;;;;;21.10;53.00;;;;;;1552044;75;680;-53
2023/09/01 06:04:07;;;;;;;;;;;21.10;52.90;;;;;;1547357;75;1538;-53
2023/09/01 06:06:09;;;;;;;;;;;21.10;53.00;;;;;;1544541;75;1952;-53
2023/09/01 06:08:11;;;;;;;;;;;21.10;53.00;;;;;;1545238;76;808;-56
2023/09/01 06:10:13;;;;;;;;;;;21.10;53.00;;;;;;1543960;75;1139;-53
2023/09/01 06:12:15;;;;;;;;;;;21.10;53.00;;;;;;1546055;75;682;-56
2023/09/01 06:14:16;;;;;;;;;;;21.10;53.00;;;;;;1538785;75;669;-56
2023/09/01 06:16:19;;;;;;;;;;;21.10;53.00;;;;;;1554852;75;657;-56
2023/09/01 06:18:21;;;;;;;;;;;21.10;53.10;;;;;;1551939;75;1286;-56
2023/09/01 06:20:23;;;;;;;;;;;21.10;53.00;;;;;;1542325;75;1163;-56
2023/09/01 06:22:24;;;;;;;;;;;21.10;53.10;;;;;;1543288;76;699;-56
2023/09/01 06:24:26;;;;;;;;;;;21.10;53.10;;;;;;1556252;75;760;-55
2023/09/01 06:26:28;;;;;;;;;;;21.10;53.10;;;;;;1556356;75;1915;-53
2023/09/01 06:28:30;;;;;;;;;;;21.10;53.10;;;;;;1558794;75;725;-56
2023/09/01 06:30:32;;;;;;;;;;;21.10;53.10;;;;;;1548929;76;1080;-54
2023/09/01 06:32:34;;;;;;;;;;;21.10;53.10;;;;;;1547105;75;1549;-56
2023/09/01 06:34:36;;;;;;;;;;;21.10;53.10;;;;;;1553104;75;694;-54
2023/09/01 06:36:38;;;;;;;;;;;21.10;53.10;;;;;;1559995;75;960;-53
2023/09/01 06:38:40;;;;;;;;;;;21.10;53.10;;;;;;1550688;76;781;-56
2023/09/01 06:40:43;;;;;;;;;;;21.10;53.10;;;;;;1552196;76;1146;-55
2023/09/01 06:42:45;;;;;;;;;;;21.20;53.10;;;;;;1541790;75;873;-54
2023/09/01 06:44:47;;;;;;;;;;;21.10;53.10;;;;;;1554284;75;715;-53
2023/09/01 06:46:49;;;;;;;;;;;21.20;53.10;;;;;;1539787;76;1898;-54
2023/09/01 06:48:51;;;;;;;;;;;21.10;53.10;;;;;;1546173;75;880;-53
2023/09/01 06:50:53;;;;;;;;;;;21.10;53.10;;;;;;1550360;75;1154;-55
2023/09/01 06:52:55;;;;;;;;;;;21.20;53.10;;;;;;1550159;75;655;-55
2023/09/01 06:54:57;;;;;;;;;;;21.10;53.20;;;;;;1546743;75;785;-54
2023/09/01 06:56:59;;;;;;;;;;;21.20;53.10;;;;;;1542096;75;684;-55
2023/09/01 06:59:01;;;;;;;;;;;21.20;53.10;;;;;;1541899;75;753;-55
2023/09/01 07:01:11;;;;;;;;;;;21.20;53.00;;;;;;1555044;75;1550;-53
2023/09/01 07:03:12;;;;;;;;;;;21.20;53.00;;;;;;1548708;75;715;-56
2023/09/01 07:05:16;;;;;;;;;;;21.10;53.10;;;;;;1558878;75;663;-54
2023/09/01 07:07:18;;;;;;;;;;;21.20;53.00;;;;;;1532357;76;1920;-55
2023/09/01 07:09:20;;;;;;;;;;;21.20;53.00;;;;;;1525585;77;1158;-56
2023/09/01 07:11:22;;;;;;;;;;;21.20;53.00;;;;;;1539368;76;787;-56
2023/09/01 07:13:24;;;;;;;;;;;21.20;53.00;;;;;;1535284;76;639;-53
2023/09/01 07:15:26;;;;;;;;;;;21.20;53.00;;;;;;1519084;77;1307;-54
2023/09/01 07:17:28;;;;;;;;;;;21.20;53.10;;;;;;1538668;76;656;-53
2023/09/01 07:19:30;;;;;;;;;;;21.20;53.10;;;;;;1533478;76;1166;-53
2023/09/01 07:21:32;;;;;;;;;;;21.10;53.10;;;;;;1522573;77;770;-56
2023/09/01 07:23:33;;;;;;;;;;;21.20;52.90;;;;;;1556195;75;943;-52
2023/09/01 07:25:35;;;;;;;;;;;21.20;52.80;;;;;;1547819;75;738;-56
2023/09/01 07:27:37;;;;;;;;;;;21.20;52.80;;;;;;1557668;75;1962;-54
2023/09/01 07:29:39;;;;;;;;;;;21.20;52.80;;;;;;1549281;75;1375;-56
2023/09/01 07:31:41;;;;;;;;;;;21.20;52.70;;;;;;1546221;76;736;-53
2023/09/01 07:33:43;;;;;;;;;;;21.20;52.50;;;;;;1547139;75;725;-53
2023/09/01 07:35:46;;;;;;;;;;;21.20;52.40;;;;;;1549422;75;682;-55
2023/09/01 07:37:48;;;;;;;;;;;21.20;52.30;;;;;;1534709;76;1390;-55
2023/09/01 07:39:50;;;;;;;;;;;21.20;52.10;;;;;;1541350;76;1148;-56
2023/09/01 07:41:52;;;;;;;;;;;21.20;52.10;;;;;;1542177;76;714;-56
2023/09/01 07:43:54;;;;;;;;;;;21.30;52.20;;;;;;1544859;76;1491;-53
2023/09/01 07:45:56;;;;;;;;;;;21.30;52.10;;;;;;1548072;75;789;-54
2023/09/01 07:47:58;;;;;;;;;;;21.20;51.90;;;;;;1543226;75;1943;-55
2023/09/01 07:49:59;;;;;;;;;;;21.30;52.10;;;;;;1551780;75;1180;-56
2023/09/01 07:52:02;;;;;;;;;;;21.30;52.00;;;;;;1546735;75;732;-54
2023/09/01 07:54:05;;;;;;;;;;;21.20;51.50;;;;;;1550053;75;786;-53
2023/09/01 07:56:06;;;;;;;;;;;21.30;51.60;;;;;;1551731;75;738;-53
2023/09/01 07:58:08;;;;;;;;;;;21.30;51.60;;;;;;1552313;75;1544;-56
2023/09/01 08:00:11;;;;;;;;;;;21.30;51.50;;;;;;1544486;76;1138;-56
2023/09/01 08:02:13;;;;;;;;;;;21.30;51.50;;;;;;1552140;75;741;-54
2023/09/01 08:04:14;;;;;;;;;;;21.30;51.40;;;;;;1546764;75;696;-56
2023/09/01 08:06:16;;;;;;;;;;;21.30;51.20;;;;;;1553818;75;1894;-54
2023/09/01 08:08:18;;;;;;;;;;;21.30;51.20;;;;;;1549461;76;738;-55
2023/09/01 08:10:20;;;;;;;;;;;21.30;51.10;;;;;;1548126;75;1154;-55
2023/09/01 08:12:22;;;;;;;;;;;21.30;51.30;;;;;;1538731;75;1527;-56
2023/09/01 08:14:24;;;;;;;;;;;21.30;51.20;;;;;;1549323;75;829;-54
2023/09/01 08:16:26;;;;;;;;;;;21.30;51.20;;;;;;1539677;75;694;-56
2023/09/01 08:18:28;;;;;;;;;;;21.30;51.10;;;;;;1551840;75;734;-55
2023/09/01 08:20:30;;;;;;;;;;;21.30;51.10;;;;;;1538673;75;1163;-56
2023/09/01 08:22:31;;;;;;;;;;;21.30;51.00;;;;;;1546999;75;1186;-56
2023/09/01 08:24:34;;;;;;;;;;;21.30;51.00;;;;;;1561022;75;1556;-55
2023/09/01 08:26:36;;;;;;;;;;;21.30;51.00;;;;;;1536815;75;1907;-56
2023/09/01 08:28:38;;;;;;;;;;;21.30;51.10;;;;;;1541613;75;759;-54
2023/09/01 08:30:40;;;;;;;;;;;21.30;51.20;;;;;;1545909;75;1143;-56
2023/09/01 08:32:42;;;;;;;;;;;21.30;51.20;;;;;;1554910;75;571;-55
2023/09/01 08:34:46;;;;;;;;;;;21.40;51.30;;;;;;1558396;75;753;-53
2023/09/01 08:36:48;;;;;;;;;;;21.30;51.20;;;;;;1547640;75;1595;-53
2023/09/01 08:38:50;;;;;;;;;;;21.30;51.20;;;;;;1544966;75;1339;-54
2023/09/01 08:40:53;;;;;;;;;;;21.40;51.20;;;;;;1551643;75;1118;-54
2023/09/01 08:42:55;;;;;;;;;;;21.40;51.30;;;;;;1537449;75;940;-56
2023/09/01 08:44:57;;;;;;;;;;;21.40;51.10;;;;;;1541032;75;702;-54
2023/09/01 08:46:59;;;;;;;;;;;21.40;51.00;;;;;;1556379;75;1926;-56
2023/09/01 08:49:02;;;;;;;;;;;21.30;50.90;;;;;;1555595;75;771;-53
2023/09/01 08:51:05;;;;;;;;;;;21.40;50.90;;;;;;1537163;75;1100;-55
2023/09/01 08:53:07;;;;;;;;;;;21.40;51.00;;;;;;1545127;75;1551;-53
2023/09/01 08:55:10;;;;;;;;;;;21.40;51.00;;;;;;1546449;75;662;-54
2023/09/01 08:57:12;;;;;;;;;;;21.40;51.00;;;;;;1547561;75;678;-53
2023/09/01 08:59:14;;;;;;;;;;;21.40;51.00;;;;;;1544093;75;1205;-56
2023/09/01 09:01:16;;;;;;;;;;;21.40;51.00;;;;;;1551025;75;672;-54
2023/09/01 09:03:19;;;;;;;;;;;21.40;51.00;;;;;;1558127;75;668;-55
2023/09/01 09:05:21;;;;;;;;;;;21.40;50.80;;;;;;1556053;75;684;-56
2023/09/01 09:07:23;;;;;;;;;;;21.40;50.70;;;;;;1537732;75;1920;-55
2023/09/01 09:09:25;;;;;;;;;;;21.40;50.80;;;;;;1549419;75;1131;-56
2023/09/01 09:11:27;;;;;;;;;;;21.50;51.00;;;;;;1546435;76;688;-56
2023/09/01 09:13:34;;;;;;;;;;;21.40;50.80;;;;;;1530722;75;657;-53
2023/09/01 09:15:34;;;;;;;;;;;21.40;50.80;;;;;;1540441;76;2327;-56
2023/09/01 09:17:44;;;;;;;;;;;21.50;50.80;;;;;;1549600;75;737;-56
2023/09/01 09:19:53;;;;;;;;;;;21.40;50.70;;;;;;1540715;76;1470;-56
2023/09/01 09:22:10;;;;;;;;;;;21.40;50.70;;;;;;1538520;75;1311;-54
2023/09/01 09:24:08;;;;;;;;;;;21.40;50.70;;;;;;1563750;75;1529;-55
2023/09/01 09:26:10;;;;;;;;;;;21.40;50.90;;;;;;1552792;75;677;-55
2023/09/01 09:28:13;;;;;;;;;;;21.40;50.90;;;;;;1537968;75;1938;-55
2023/09/01 09:30:15;;;;;;;;;;;21.40;50.80;;;;;;1544855;76;1141;-55
2023/09/01 09:32:18;;;;;;;;;;;21.40;50.80;;;;;;1545450;76;682;-56
2023/09/01 09:34:22;;;;;;;;;;;21.50;50.90;;;;;;1549110;75;730;-53
2023/09/01 09:36:36;;;;;;;;;;;21.50;50.70;;;;;;1546630;75;1685;-54
2023/09/01 09:38:40;;;;;;;;;;;21.50;50.60;;;;;;1545814;76;1643;-55
2023/09/01 09:40:42;;;;;;;;;;;21.50;50.70;;;;;;1542971;75;1156;-56
2023/09/01 09:42:44;;;;;;;;;;;21.40;50.70;;;;;;1548959;75;735;-55
2023/09/01 09:44:49;;;;;;;;;;;21.50;50.80;;;;;;1523621;76;674;-53
2023/09/01 09:46:50;;;;;;;;;;;21.40;50.70;;;;;;1535554;75;1501;-56
2023/09/01 09:48:53;;;;;;;;;;;21.50;50.80;;;;;;1563709;75;1325;-53
2023/09/01 09:50:55;;;;;;;;;;;21.50;50.80;;;;;;1536611;76;1111;-54
2023/09/01 09:52:59;;;;;;;;;;;21.50;50.90;;;;;;1527106;76;765;-52
2023/09/01 09:55:03;;;;;;;;;;;21.50;50.80;;;;;;1558461;75;1632;-54
2023/09/01 09:57:06;;;;;;;;;;;21.50;50.80;;;;;;1570588;75;1521;-56
2023/09/01 09:59:08;;;;;;;;;;;21.50;50.70;;;;;;1548952;75;757;-54
2023/09/01 10:01:15;;;;;;;;;;;21.50;50.70;;;;;;1540505;76;1189;-54
2023/09/01 10:03:16;;;;;;;;;;;21.50;50.70;;;;;;1525650;76;1613;-56
2023/09/01 10:05:18;;;;;;;;;;;21.50;50.70;;;;;;1535033;76;729;-55
2023/09/01 10:07:21;;;;;;;;;;;21.50;50.70;;;;;;1520589;76;1950;-53
2023/09/01 10:09:23;;;;;;;;;;;21.50;50.60;;;;;;1545911;75;1116;-55
2023/09/01 10:11:24;;;;;;;;;;;21.50;50.60;;;;;;1547463;75;736;-53
2023/09/01 10:13:26;;;;;;;;;;;21.50;50.70;;;;;;1552678;75;772;-56
2023/09/01 10:15:29;;;;;;;;;;;21.50;50.70;;;;;;1546454;75;729;-54
2023/09/01 10:17:32;;;;;;;;;;;21.50;50.60;;;;;;1546468;76;1584;-55
2023/09/01 10:19:34;;;;;;;;;;;21.50;50.70;;;;;;1550880;75;1136;-55
2023/09/01 10:21:40;;;;;;;;;;;21.50;50.70;;;;;;1557241;75;721;-56
2023/09/01 10:23:41;;;;;;;;;;;21.50;50.70;;;;;;1530428;76;1507;-56
2023/09/01 10:25:45;;;;;;;;;;;21.50;50.60;;;;;;1554238;75;786;-56
2023/09/01 10:28:00;;;;;;;;;;;21.50;50.60;;;;;;1548507;75;1926;-54
2023/09/01 10:30:04;;;;;;;;;;;21.50;50.60;;;;;;1542674;75;1149;-53
2023/09/01 10:32:17;;;;;;;;;;;21.50;50.60;;;;;;1552746;76;1584;-53
2023/09/01 10:34:19;;;;;;;;;;;21.50;50.60;;;;;;1549991;75;1355;-53
2023/09/01 10:36:21;;;;;;;;;;;21.50;50.60;;;;;;1548374;75;1174;-54
2023/09/01 10:38:25;;;;;;;;;;;21.50;50.60;;;;;;1526211;77;725;-54
2023/09/01 10:40:40;;;;;;;;;;;21.50;50.60;;;;;;1558522;75;1173;-55
2023/09/01 10:42:48;;;;;;;;;;;21.50;50.60;;;;;;1538049;76;695;-56
2023/09/01 10:44:50;;;;;;;;;;;21.50;50.60;;;;;;1536225;76;1077;-56
2023/09/01 10:46:52;;;;;;;;;;;21.60;50.60;;;;;;1546868;75;1642;-55
2023/09/01 10:48:57;;;;;;;;;;;21.60;50.60;;;;;;1551667;75;1940;-55
2023/09/01 10:51:13;;;;;;;;;;;21.60;50.60;;;;;;1546561;75;1130;-56
2023/09/01 10:53:28;;;;;;;;;;;21.50;50.50;;;;;;1506882;75;1042;-53
2023/09/01 10:55:33;;;;;;;;;;;21.50;50.50;;;;;;1557409;75;770;-54
2023/09/01 10:57:41;;;;;;;;;;;21.50;50.50;;;;;;1540279;76;1686;-54
2023/09/01 10:59:43;;;;;;;;;;;21.60;50.60;;;;;;1546368;75;1671;-53
2023/09/01 11:01:45;;;;;;;;;;;21.60;50.50;;;;;;1544614;76;718;-55
2023/09/01 11:03:47;;;;;;;;;;;21.50;50.50;;;;;;1545444;75;682;-53
2023/09/01 11:05:50;;;;;;;;;;;21.60;50.60;;;;;;1553149;75;759;-52
2023/09/01 11:08:00;;;;;;;;;;;21.60;50.60;;;;;;1539646;75;1955;-54
2023/09/01 11:10:02;;;;;;;;;;;21.60;50.60;;;;;;1519525;76;1207;-53
2023/09/01 11:12:08;;;;;;;;;;;21.60;50.60;;;;;;1534280;76;802;-53
2023/09/01 11:14:09;;;;;;;;;;;21.60;50.60;;;;;;1524673;76;1473;-52
2023/09/01 11:16:11;;;;;;;;;;;21.60;50.50;;;;;;1545535;76;681;-52
2023/09/01 11:18:17;;;;;;;;;;;21.60;50.60;;;;;;1528187;77;780;-52
2023/09/01 11:20:20;;;;;;;;;;;21.60;50.60;;;;;;1531944;76;1158;-52
2023/09/01 11:22:22;;;;;;;;;;;21.60;50.60;;;;;;1566408;75;1010;-51
2023/09/01 11:24:24;;;;;;;;;;;21.60;50.60;;;;;;1542397;76;747;-51
2023/09/01 11:26:26;;;;;;;;;;;21.60;50.60;;;;;;1543558;76;745;-54
2023/09/01 11:28:28;;;;;;;;;;;21.60;50.60;;;;;;1562705;75;1954;-52
2023/09/01 11:30:30;;;;;;;;;;;21.50;50.60;;;;;;1560360;75;1145;-51
2023/09/01 11:32:32;;;;;;;;;;;21.60;50.60;;;;;;1571940;75;675;-52
2023/09/01 11:34:40;;;;;;;;;;;21.60;50.50;;;;;;1545410;76;699;-53
2023/09/01 11:36:49;;;;;;;;;;;21.60;50.50;;;;;;1534915;76;667;-52
2023/09/01 11:38:51;;;;;;;;;;;21.60;50.50;;;;;;1552223;75;690;-51
2023/09/01 11:40:53;;;;;;;;;;;21.60;50.40;;;;;;1556557;75;1156;-54
2023/09/01 11:42:55;;;;;;;;;;;21.60;50.40;;;;;;1554911;75;1566;-52
2023/09/01 11:44:57;;;;;;;;;;;21.60;50.30;;;;;;1560304;75;745;-52
2023/09/01 11:46:59;;;;;;;;;;;21.60;50.40;;;;;;1554580;75;699;-53
2023/09/01 11:49:01;;;;;;;;;;;21.60;50.30;;;;;;1541383;75;1948;-53
2023/09/01 11:51:04;;;;;;;;;;;21.50;50.30;;;;;;1549095;75;1118;-53
2023/09/01 11:53:06;;;;;;;;;;;21.60;50.30;;;;;;1546245;75;779;-54
2023/09/01 11:55:08;;;;;;;;;;;21.60;50.20;;;;;;1559770;75;1032;-52
2023/09/01 11:57:13;;;;;;;;;;;21.60;50.20;;;;;;1541126;76;1556;-52
2023/09/01 11:59:17;;;;;;;;;;;21.60;50.20;;;;;;1538619;75;1146;-55
2023/09/01 12:01:19;;;;;;;;;;;21.60;50.20;;;;;;1543618;75;1868;-54
2023/09/01 12:03:22;;;;;;;;;;;21.60;50.20;;;;;;1550666;75;787;-54
2023/09/01 12:05:30;;;;;;;;;;;21.60;50.20;;;;;;1554318;75;683;-55
2023/09/01 12:07:32;;;;;;;;;;;21.60;50.10;;;;;;1540561;75;694;-55
2023/09/01 12:09:34;;;;;;;;;;;21.60;50.10;;;;;;1539503;75;1914;-56